Terminal Aerodrome Forecast
Issued by NWS

Home | Current Version | Previous Version | Text Only | Print | Product List | Glossary On
Versions: 1 2 3 4 5 6 7 8 9 10 11 12 13 14 15
605
FTUS45 KABQ 231140
TAFSAF
TAF
KSAF 231140Z 2312/2412 17010KT P6SM FEW060
     FM231400 23015G25KT P6SM SCT050
     FM231700 26028G38KT P6SM FEW060
     FM240100 31013KT P6SM FEW060
     FM240600 30007KT P6SM SCT060=

USA.gov is the U.S. government's official web portal to all federal, state and local government web resources and services.